Time;durP1;ratioP1;P1;durP2;ratioP2;P2;SDS_P1;SDS_P2;PMS_P1;PMS_P2;Temp;Humidity;BMP_temperature;BMP_pressure;BME280_temperature;BME280_humidity;BME280_pressure;Samples;Min_cycle;Max_cycle;Signal;HPM_P1;HPM_P2
2023/10/02 00:02:40;;;;;;;13.60;6.10;;;20.30;99.90;;;;;;5053088;28;20082;-37
2023/10/02 00:05:05;;;;;;;11.30;6.10;;;20.30;99.90;;;;;;5052607;28;20112;-35
2023/10/02 00:07:34;;;;;;;13.35;5.88;;;20.30;99.90;;;;;;5052834;28;20024;-37
2023/10/02 00:10:01;;;;;;;14.10;6.75;;;20.30;99.90;;;;;;5052187;28;20032;-33
2023/10/02 00:12:31;;;;;;;11.10;6.65;;;20.30;99.90;;;;;;5034931;28;20057;-34
2023/10/02 00:14:58;;;;;;;11.00;6.15;;;20.30;99.90;;;;;;5052701;28;20099;-36
2023/10/02 00:17:24;;;;;;;10.98;6.28;;;20.30;99.90;;;;;;5052478;28;20029;-36
2023/10/02 00:20:12;;;;;;;11.40;6.45;;;20.30;99.90;;;;;;5052682;28;20121;-37
2023/10/02 00:22:38;;;;;;;10.63;5.90;;;20.30;99.90;;;;;;5052694;28;20052;-37
2023/10/02 00:25:27;;;;;;;12.65;6.55;;;20.30;99.90;;;;;;5052639;28;20045;-33
2023/10/02 00:27:54;;;;;;;10.68;6.28;;;20.30;99.90;;;;;;5052383;28;20021;-39
2023/10/02 00:30:30;;;;;;;10.68;6.18;;;20.30;99.90;;;;;;5052610;28;20075;-34
2023/10/02 00:32:56;;;;;;;12.48;6.63;;;20.30;99.90;;;;;;5052705;28;20036;-34
2023/10/02 00:35:22;;;;;;;11.20;6.35;;;20.30;99.90;;;;;;5052286;28;20382;-39
2023/10/02 00:37:48;;;;;;;11.68;6.28;;;20.30;99.90;;;;;;5052257;28;20063;-35
2023/10/02 00:40:21;;;;;;;11.43;6.43;;;20.30;99.90;;;;;;5052220;28;20104;-35
2023/10/02 00:45:49;;;;;;;12.77;6.72;;;20.30;99.90;;;;;;5053139;28;20063;-39
2023/10/02 00:48:28;;;;;;;10.55;6.13;;;20.30;99.90;;;;;;5052013;28;20032;-37
2023/10/02 00:50:58;;;;;;;11.68;6.72;;;20.30;99.90;;;;;;5052347;28;20391;-36
2023/10/02 00:53:41;;;;;;;12.52;6.70;;;20.20;99.90;;;;;;5052430;28;20032;-34
2023/10/02 00:56:20;;;;;;;11.13;6.47;;;20.30;99.90;;;;;;5052015;28;20109;-41
2023/10/02 00:58:48;;;;;;;10.68;6.13;;;20.30;99.90;;;;;;5052580;28;20350;-33
2023/10/02 01:01:14;;;;;;;11.50;6.50;;;20.30;99.90;;;;;;5052747;28;20052;-36
2023/10/02 01:04:08;;;;;;;14.15;7.00;;;20.30;99.90;;;;;;5055758;28;20052;-37
2023/10/02 01:06:26;;;;;;;10.95;6.05;;;20.30;99.90;;;;;;5051577;28;20021;-36
2023/10/02 01:08:52;;;;;;;10.85;6.60;;;20.20;99.90;;;;;;5051865;28;20029;-37
2023/10/02 01:11:20;;;;;;;11.73;6.38;;;20.30;99.90;;;;;;5052213;28;20032;-39
2023/10/02 01:13:46;;;;;;;14.38;7.00;;;20.20;99.90;;;;;;5051713;28;20032;-33
2023/10/02 01:16:17;;;;;;;9.98;5.88;;;20.20;99.90;;;;;;5051503;28;20029;-37
2023/10/02 01:18:44;;;;;;;13.95;6.82;;;20.20;99.90;;;;;;5051598;28;20482;-36
2023/10/02 01:21:11;;;;;;;12.52;5.95;;;20.20;99.90;;;;;;5051605;28;20025;-33
2023/10/02 01:24:06;;;;;;;12.70;6.63;;;20.20;99.90;;;;;;5051540;28;20151;-38
2023/10/02 01:26:40;;;;;;;12.03;6.40;;;20.20;99.90;;;;;;5051491;28;20110;-35
2023/10/02 01:29:06;;;;;;;11.85;6.85;;;20.20;99.90;;;;;;5051521;28;20255;-35
2023/10/02 01:31:35;;;;;;;11.60;6.70;;;20.20;99.90;;;;;;5051491;28;20092;-36
2023/10/02 01:34:02;;;;;;;11.38;6.40;;;20.20;99.90;;;;;;5051522;28;20029;-36
2023/10/02 01:36:31;;;;;;;11.85;6.72;;;20.20;99.90;;;;;;5051185;28;20021;-35
2023/10/02 01:39:12;;;;;;;11.90;6.60;;;20.20;99.90;;;;;;5051322;28;20035;-35
2023/10/02 01:41:38;;;;;;;11.05;6.35;;;20.20;99.90;;;;;;5051382;28;20024;-34
2023/10/02 01:44:10;;;;;;;11.02;6.25;;;20.20;99.90;;;;;;5051211;28;20029;-35
2023/10/02 01:46:37;;;;;;;11.45;6.60;;;20.20;99.90;;;;;;5051122;28;20025;-37
2023/10/02 01:49:24;;;;;;;13.23;6.55;;;20.20;99.90;;;;;;5050939;28;20029;-37
2023/10/02 01:51:50;;;;;;;12.30;6.50;;;20.20;99.90;;;;;;5051076;28;20021;-36
2023/10/02 01:54:16;;;;;;;11.60;6.40;;;20.20;99.90;;;;;;5051103;28;20032;-37
2023/10/02 01:56:46;;;;;;;9.98;6.32;;;20.20;99.90;;;;;;5051023;28;20029;-38
2023/10/02 01:59:19;;;;;;;11.07;6.70;;;20.20;99.90;;;;;;5051073;28;20106;-37
2023/10/02 02:01:57;;;;;;;11.27;6.43;;;20.20;99.90;;;;;;5051042;28;20028;-37
2023/10/02 02:04:23;;;;;;;11.35;6.22;;;20.20;99.90;;;;;;5051091;28;20021;-36
2023/10/02 02:06:57;;;;;;;12.07;6.40;;;20.20;99.90;;;;;;5051036;28;20035;-36
2023/10/02 02:09:31;;;;;;;12.23;6.60;;;20.20;99.90;;;;;;5051059;28;20075;-33
2023/10/02 02:12:07;;;;;;;11.85;6.60;;;20.10;99.90;;;;;;5051454;28;20459;-35
2023/10/02 02:15:09;;;;;;;12.80;6.78;;;20.10;99.90;;;;;;5051284;28;20024;-36
2023/10/02 02:17:28;;;;;;;11.82;6.32;;;20.20;99.90;;;;;;5047652;28;20038;-36
2023/10/02 02:20:10;;;;;;;10.38;6.28;;;20.20;99.90;;;;;;5050987;28;20071;-36
2023/10/02 02:22:37;;;;;;;10.35;6.32;;;20.20;99.90;;;;;;5050854;28;20082;-36
2023/10/02 02:25:04;;;;;;;12.98;6.80;;;20.20;99.90;;;;;;5050761;28;20021;-36
2023/10/02 02:27:30;;;;;;;10.95;6.10;;;20.20;99.90;;;;;;5051047;28;20013;-33
2023/10/02 02:29:57;;;;;;;10.85;6.55;;;20.10;99.90;;;;;;5050920;28;20359;-33
2023/10/02 02:32:36;;;;;;;12.40;6.18;;;20.10;99.90;;;;;;5051221;28;20555;-33
2023/10/02 02:35:03;;;;;;;11.02;6.07;;;20.10;99.90;;;;;;5054674;28;20040;-35
2023/10/02 02:37:32;;;;;;;11.57;6.53;;;20.10;99.90;;;;;;5054716;28;20021;-37
2023/10/02 02:40:21;;;;;;;9.85;5.93;;;20.10;99.90;;;;;;5054689;28;20108;-38
2023/10/02 02:42:45;;;;;;;11.73;6.43;;;20.10;99.90;;;;;;5054393;28;20119;-34
2023/10/02 02:45:31;;;;;;;14.88;6.75;;;20.10;99.90;;;;;;5054298;28;20048;-34
2023/10/02 02:48:03;;;;;;;12.85;6.70;;;20.10;99.90;;;;;;5054543;28;20056;-35
2023/10/02 02:50:36;;;;;;;12.75;7.15;;;20.10;99.90;;;;;;5054517;28;20017;-37
2023/10/02 02:53:17;;;;;;;11.45;6.60;;;20.10;99.90;;;;;;5054558;28;20099;-33
2023/10/02 02:56:14;;;;;;;13.63;6.55;;;20.10;99.90;;;;;;5054115;28;20029;-34
2023/10/02 02:59:02;;;;;;;13.23;6.40;;;20.10;99.90;;;;;;5054255;28;20086;-37
2023/10/02 03:01:29;;;;;;;12.80;6.72;;;20.10;99.90;;;;;;5054270;28;20098;-33
2023/10/02 03:03:56;;;;;;;10.55;6.57;;;20.10;99.90;;;;;;5054488;28;20470;-35
2023/10/02 03:06:22;;;;;;;10.07;5.93;;;20.10;99.90;;;;;;5053922;28;20542;-35
2023/10/02 03:08:52;;;;;;;11.07;6.75;;;20.10;99.90;;;;;;5054213;28;20413;-39
2023/10/02 03:11:22;;;;;;;11.60;6.32;;;20.00;99.90;;;;;;5054086;28;20040;-36
2023/10/02 03:13:49;;;;;;;11.13;6.43;;;20.00;99.90;;;;;;5054052;28;20025;-35
2023/10/02 03:16:18;;;;;;;10.77;6.47;;;20.10;99.90;;;;;;5053716;28;20036;-35
2023/10/02 03:18:45;;;;;;;10.38;6.32;;;20.00;99.90;;;;;;5053765;28;20025;-37
2023/10/02 03:21:23;;;;;;;12.05;6.80;;;20.10;99.90;;;;;;5053908;28;20033;-35
2023/10/02 03:23:53;;;;;;;10.93;6.28;;;20.00;99.90;;;;;;5053825;28;20056;-33
2023/10/02 03:29:00;;;;;;;14.10;6.90;;;20.10;99.90;;;;;;5053641;28;20040;-36
2023/10/02 03:31:34;;;;;;;;;;;20.10;99.90;;;;;;5054114;28;20051;-35
2023/10/02 03:34:01;;;;;;;12.73;7.00;;;20.00;99.90;;;;;;5053930;28;19905;-35
2023/10/02 03:36:27;;;;;;;13.25;6.55;;;20.10;99.90;;;;;;5053440;28;20529;-40
2023/10/02 03:38:57;;;;;;;11.73;6.78;;;20.10;99.90;;;;;;5053519;28;20113;-36
2023/10/02 03:41:44;;;;;;;11.82;6.78;;;20.10;99.90;;;;;;5053409;28;20025;-34
2023/10/02 03:44:08;;;;;;;12.35;6.90;;;20.10;99.90;;;;;;5052105;28;20059;-37
2023/10/02 03:46:38;;;;;;;10.57;5.97;;;20.10;99.90;;;;;;5053233;28;20021;-35
2023/10/02 03:49:06;;;;;;;11.35;6.32;;;20.00;99.90;;;;;;5053708;28;20490;-38
2023/10/02 03:51:40;;;;;;;12.10;6.32;;;20.00;99.90;;;;;;5053285;28;20049;-34
2023/10/02 03:54:17;;;;;;;10.30;5.82;;;20.00;99.90;;;;;;5053186;28;20028;-36
2023/10/02 03:56:50;;;;;;;11.48;6.43;;;20.00;99.90;;;;;;5053076;28;20048;-39
2023/10/02 03:59:21;;;;;;;12.18;7.05;;;20.00;99.90;;;;;;5053105;28;20101;-34
2023/10/02 04:01:48;;;;;;;12.43;6.85;;;20.00;99.90;;;;;;5053102;28;20025;-34
2023/10/02 04:06:42;;;;;;;12.95;6.45;;;20.00;99.90;;;;;;5052821;28;20027;-35
2023/10/02 04:11:36;;;;;;;11.50;6.43;;;20.00;99.90;;;;;;5053228;28;20017;-37
2023/10/02 04:14:02;;;;;;;12.43;6.55;;;20.00;99.90;;;;;;5053274;28;20028;-35
2023/10/02 04:16:28;;;;;;;12.38;6.55;;;20.00;99.90;;;;;;5053141;28;20029;-36
2023/10/02 04:19:01;;;;;;;11.70;6.70;;;20.00;99.90;;;;;;5052672;28;20020;-43
2023/10/02 04:21:28;;;;;;;13.00;6.18;;;20.00;99.90;;;;;;5052903;28;20021;-37
2023/10/02 04:23:54;;;;;;;10.10;6.30;;;20.00;99.90;;;;;;5052612;28;20103;-40
2023/10/02 04:26:22;;;;;;;11.88;6.30;;;20.00;99.90;;;;;;5052462;28;20032;-33
2023/10/02 04:31:44;;;;;;;12.90;6.45;;;19.90;99.90;;;;;;5036300;28;20033;-33
2023/10/02 04:34:24;;;;;;;9.93;5.65;;;20.00;99.90;;;;;;5052452;28;20021;-40
2023/10/02 04:36:51;;;;;;;11.13;6.15;;;19.90;99.90;;;;;;5052338;28;20103;-33
2023/10/02 04:42:19;;;;;;;10.55;6.32;;;20.00;99.90;;;;;;5052521;28;20033;-36
2023/10/02 04:44:46;;;;;;;11.32;6.25;;;20.00;99.90;;;;;;5052270;28;20033;-37
2023/10/02 04:47:17;;;;;;;11.15;6.28;;;20.00;99.90;;;;;;5052207;28;20021;-35
2023/10/02 04:50:34;;;;;;;11.15;6.00;;;20.00;99.90;;;;;;5052664;28;20082;-40
2023/10/02 04:55:23;;;;;;;12.82;6.68;;;20.00;99.90;;;;;;5053455;28;20472;-34
2023/10/02 04:58:03;;;;;;;12.30;6.30;;;20.00;99.90;;;;;;5053966;28;20032;-36
2023/10/02 05:00:34;;;;;;;11.68;6.40;;;19.90;99.90;;;;;;5052049;28;20078;-37
2023/10/02 05:03:17;;;;;;;12.50;7.13;;;19.90;99.90;;;;;;5051972;28;20057;-35
2023/10/02 05:05:53;;;;;;;11.73;6.70;;;19.90;99.90;;;;;;5051797;28;20059;-33
2023/10/02 05:08:35;;;;;;;11.02;6.47;;;19.90;99.90;;;;;;5051793;28;20021;-33
2023/10/02 05:11:08;;;;;;;11.02;6.10;;;19.90;99.90;;;;;;5051653;28;20083;-34
2023/10/02 05:14:13;;;;;;;13.15;6.70;;;19.90;99.90;;;;;;5051718;28;20036;-36
2023/10/02 05:16:35;;;;;;;9.95;6.13;;;19.90;99.90;;;;;;5049398;28;20045;-35
2023/10/02 05:19:05;;;;;;;14.55;6.75;;;19.90;99.90;;;;;;5051577;28;20029;-35
2023/10/02 05:22:16;;;;;;;12.30;6.50;;;19.90;99.90;;;;;;5051471;28;20033;-35
2023/10/02 05:24:20;;;;;;;12.43;6.65;;;19.90;99.90;;;;;;5043206;28;20041;-37
2023/10/02 05:26:49;;;;;;;12.07;6.45;;;19.90;99.90;;;;;;5051440;28;20028;-33
2023/10/02 05:29:17;;;;;;;11.20;6.25;;;19.90;99.90;;;;;;5051398;28;20100;-33
2023/10/02 05:31:47;;;;;;;10.15;6.22;;;19.80;99.90;;;;;;5051410;28;20021;-36
2023/10/02 05:34:24;;;;;;;12.98;6.30;;;19.80;99.90;;;;;;5051387;28;20035;-33
2023/10/02 05:39:39;;;;;;;11.88;6.53;;;19.80;99.90;;;;;;5051542;28;20040;-37
2023/10/02 05:42:14;;;;;;;13.35;6.72;;;19.80;99.90;;;;;;5051364;28;20422;-33
2023/10/02 05:44:49;;;;;;;10.98;5.95;;;19.80;99.90;;;;;;5051145;28;20037;-37
2023/10/02 05:47:17;;;;;;;10.95;6.50;;;19.80;99.90;;;;;;5051099;28;20453;-35
2023/10/02 05:49:47;;;;;;;10.57;5.60;;;19.80;99.90;;;;;;5051304;28;20401;-34
2023/10/02 05:52:18;;;;;;;10.70;6.03;;;19.80;99.90;;;;;;5051181;28;20525;-33
2023/10/02 05:54:49;;;;;;;12.30;6.18;;;19.80;99.90;;;;;;5051023;28;20036;-36
2023/10/02 05:57:17;;;;;;;12.00;6.10;;;19.80;99.90;;;;;;5051061;28;20028;-37
2023/10/02 05:59:48;;;;;;;12.13;6.47;;;19.90;99.90;;;;;;5051282;28;20021;-35
2023/10/02 06:02:22;;;;;;;9.82;6.18;;;19.80;99.90;;;;;;5051130;28;20033;-34
2023/10/02 06:04:52;;;;;;;10.20;6.25;;;19.80;99.90;;;;;;5051363;28;20021;-36
2023/10/02 06:07:40;;;;;;;13.50;6.57;;;19.80;99.90;;;;;;5051108;28;20479;-36
2023/10/02 06:10:24;;;;;;;10.23;6.00;;;19.80;99.90;;;;;;5055242;28;20039;-37
2023/10/02 06:13:05;;;;;;;9.95;5.82;;;19.80;99.90;;;;;;5055139;28;20474;-35
2023/10/02 06:15:48;;;;;;;13.20;6.80;;;19.80;99.90;;;;;;5054933;28;20032;-35
2023/10/02 06:18:24;;;;;;;11.02;6.18;;;19.80;99.90;;;;;;5055096;28;20025;-33
2023/10/02 06:21:03;;;;;;;11.75;6.60;;;19.80;99.90;;;;;;5055074;28;20556;-35
2023/10/02 06:23:37;;;;;;;13.32;6.20;;;19.80;99.90;;;;;;5054940;28;20056;-38
2023/10/02 06:26:09;;;;;;;12.48;6.70;;;19.80;99.90;;;;;;5054716;28;20544;-37
2023/10/02 06:28:35;;;;;;;10.32;5.93;;;19.80;99.90;;;;;;5055110;28;20128;-33
2023/10/02 06:31:01;;;;;;;11.80;6.60;;;19.90;99.90;;;;;;5054935;28;20017;-38
2023/10/02 06:33:27;;;;;;;10.80;6.57;;;19.90;99.90;;;;;;5054767;28;20385;-36
2023/10/02 06:35:57;;;;;;;13.15;6.25;;;19.90;99.90;;;;;;5054525;28;20410;-37
2023/10/02 06:38:31;;;;;;;11.48;6.60;;;19.90;99.90;;;;;;5054560;28;20071;-37
2023/10/02 06:40:58;;;;;;;11.25;6.18;;;19.80;99.90;;;;;;5054564;28;20024;-37
2023/10/02 06:43:29;;;;;;;11.88;6.82;;;19.90;99.90;;;;;;5054546;28;20029;-36
2023/10/02 06:46:06;;;;;;;20.95;9.43;;;19.90;99.90;;;;;;5036771;28;20052;-36
2023/10/02 06:48:36;;;;;;;16.02;8.55;;;19.50;99.30;;;;;;5036467;28;20083;-33
2023/10/02 06:51:04;;;;;;;17.17;8.50;;;18.90;99.90;;;;;;5054313;28;20044;-38
2023/10/02 06:53:33;;;;;;;16.65;8.60;;;18.80;99.90;;;;;;5054491;28;20024;-33
2023/10/02 06:56:06;;;;;;;17.25;7.80;;;18.80;99.90;;;;;;5054121;28;20107;-38
2023/10/02 06:58:46;;;;;;;16.90;8.43;;;18.90;99.90;;;;;;5054337;28;20031;-42
2023/10/02 07:01:13;;;;;;;14.85;8.23;;;19.10;99.90;;;;;;5054233;28;20037;-35
2023/10/02 07:03:39;;;;;;;14.40;7.28;;;19.20;99.90;;;;;;5054162;28;20021;-41
2023/10/02 07:06:07;;;;;;;20.55;8.32;;;19.30;99.90;;;;;;5054214;28;20021;-40
2023/10/02 07:08:36;;;;;;;14.95;7.40;;;19.40;99.90;;;;;;5054073;28;20033;-35
2023/10/02 07:11:10;;;;;;;13.07;7.25;;;19.50;99.90;;;;;;5054057;28;20025;-36
2023/10/02 07:13:50;;;;;;;13.25;7.35;;;19.50;99.90;;;;;;5054089;28;20032;-33
2023/10/02 07:16:17;;;;;;;15.95;7.82;;;19.60;99.90;;;;;;5053749;28;20104;-41
2023/10/02 07:18:49;;;;;;;14.18;7.47;;;19.60;99.90;;;;;;5053733;28;20037;-39
2023/10/02 07:21:21;;;;;;;13.32;7.47;;;19.70;99.90;;;;;;5053938;28;20028;-38
2023/10/02 07:23:48;;;;;;;15.75;7.85;;;19.70;99.90;;;;;;5053855;28;20382;-39
2023/10/02 07:26:15;;;;;;;12.98;7.32;;;19.80;99.90;;;;;;5053738;28;20021;-36
2023/10/02 07:28:50;;;;;;;16.23;7.60;;;19.80;99.90;;;;;;5053587;28;20483;-37
2023/10/02 07:31:20;;;;;;;15.80;7.53;;;19.90;99.90;;;;;;5053920;28;20026;-35
2023/10/02 07:33:46;;;;;;;14.48;7.28;;;19.80;99.90;;;;;;5053813;28;20051;-37
2023/10/02 07:36:15;;;;;;;13.05;7.47;;;19.90;99.90;;;;;;5053487;28;20025;-38
2023/10/02 07:38:42;;;;;;;12.32;7.22;;;19.90;99.90;;;;;;5053579;28;20375;-35
2023/10/02 07:41:23;;;;;;;13.55;6.97;;;19.90;99.90;;;;;;5053411;28;20028;-36
2023/10/02 07:43:53;;;;;;;12.93;7.45;;;20.00;99.90;;;;;;5053899;28;20036;-37
2023/10/02 07:46:21;;;;;;;13.57;7.78;;;20.00;99.90;;;;;;5053308;28;20486;-36
2023/10/02 07:49:04;;;;;;;12.98;6.53;;;20.10;99.90;;;;;;5053390;28;20036;-38
2023/10/02 07:51:37;;;;;;;15.57;7.82;;;20.00;99.90;;;;;;5053298;28;20109;-41
2023/10/02 07:54:04;;;;;;;11.85;7.22;;;20.10;99.90;;;;;;5053616;28;20059;-36
2023/10/02 07:56:30;;;;;;;13.80;7.15;;;20.10;99.90;;;;;;5053163;28;20379;-37
2023/10/02 07:59:00;;;;;;;14.48;7.25;;;20.20;99.90;;;;;;5053072;28;20027;-39
2023/10/02 08:01:27;;;;;;;12.05;6.95;;;20.20;99.90;;;;;;5053144;28;20051;-46
2023/10/02 08:03:55;;;;;;;12.35;6.68;;;20.20;99.90;;;;;;5052837;28;20402;-39
2023/10/02 08:11:49;;;;;;;12.65;6.82;;;20.30;99.90;;;;;;5053311;28;20501;-34
2023/10/02 08:17:18;;;;;;;14.23;7.10;;;20.30;99.90;;;;;;5052764;28;20465;-44
2023/10/02 08:19:54;;;;;;;10.75;6.50;;;20.40;99.90;;;;;;5034858;28;20401;-34
2023/10/02 08:22:35;;;;;;;15.38;6.78;;;20.40;99.90;;;;;;5052774;28;20047;-35
2023/10/02 08:25:11;;;;;;;13.63;7.30;;;20.40;99.90;;;;;;5052828;28;20083;-38
2023/10/02 08:27:39;;;;;;;12.15;7.43;;;20.50;99.90;;;;;;5052664;28;20079;-42
2023/10/02 08:30:18;;;;;;;11.77;7.20;;;20.50;99.90;;;;;;5052274;28;20029;-36
2023/10/02 08:32:46;;;;;;;10.95;6.45;;;20.50;99.90;;;;;;5052552;28;20105;-40
2023/10/02 08:35:13;;;;;;;15.15;6.78;;;20.60;99.90;;;;;;5052331;28;20382;-35
2023/10/02 08:37:40;;;;;;;18.63;8.55;;;20.50;99.90;;;;;;5052695;28;20071;-37
2023/10/02 08:40:08;;;;;;;24.70;10.85;;;20.60;99.90;;;;;;5052674;28;20386;-40
2023/10/02 08:42:34;;;;;;;21.50;10.60;;;20.60;99.90;;;;;;5053357;28;20021;-38
2023/10/02 08:45:00;;;;;;;26.30;10.50;;;20.60;99.90;;;;;;5056569;28;20082;-37
2023/10/02 08:47:26;;;;;;;24.92;9.63;;;20.60;99.90;;;;;;5052921;28;20390;-39
2023/10/02 08:50:04;;;;;;;21.70;10.45;;;20.70;99.90;;;;;;5052234;28;20032;-36
2023/10/02 08:52:47;;;;;;;20.88;10.00;;;20.70;99.90;;;;;;5052160;28;20025;-36
2023/10/02 08:55:36;;;;;;;18.02;9.55;;;20.70;99.90;;;;;;5052071;28;20014;-35
2023/10/02 08:58:16;;;;;;;23.95;10.23;;;20.80;99.90;;;;;;5051920;28;20044;-39
2023/10/02 09:03:41;;;;;;;20.88;10.10;;;20.80;99.90;;;;;;5052084;28;20029;-35
2023/10/02 09:06:28;;;;;;;18.83;10.13;;;20.90;99.90;;;;;;5051763;28;20024;-35
2023/10/02 09:11:41;;;;;;;20.45;9.98;;;20.90;99.90;;;;;;5052137;28;20122;-33
2023/10/02 09:16:47;;;;;;;18.45;10.15;;;21.00;99.90;;;;;;5051630;28;20036;-38
2023/10/02 09:19:31;;;;;;;17.38;9.45;;;21.00;99.90;;;;;;5051649;28;20076;-33
2023/10/02 09:22:07;;;;;;;16.27;9.43;;;21.00;99.90;;;;;;5051811;28;20448;-35
2023/10/02 09:24:36;;;;;;;18.27;9.95;;;21.00;99.90;;;;;;5051826;28;20036;-35
2023/10/02 09:27:27;;;;;;;20.02;9.77;;;21.00;99.90;;;;;;5051443;28;20067;-33
2023/10/02 09:30:20;;;;;;;20.77;9.95;;;21.10;99.90;;;;;;5051706;28;20020;-37
2023/10/02 09:32:50;;;;;;;18.90;9.75;;;21.10;99.90;;;;;;5051408;28;20486;-37
2023/10/02 09:35:40;;;;;;;18.52;9.40;;;21.10;99.90;;;;;;5051309;28;20505;-36
2023/10/02 09:38:15;;;;;;;18.55;9.32;;;21.10;99.90;;;;;;5051341;28;20429;-37
2023/10/02 09:40:58;;;;;;;22.33;11.48;;;21.10;99.90;;;;;;5051381;28;20075;-35
2023/10/02 09:43:30;;;;;;;25.55;12.02;;;21.10;99.90;;;;;;5050385;28;20020;-33
2023/10/02 09:46:03;;;;;;;23.80;11.95;;;21.10;99.90;;;;;;5051092;28;20104;-33
2023/10/02 09:48:46;;;;;;;24.65;11.73;;;21.10;99.90;;;;;;5051692;28;20024;-35
2023/10/02 09:51:27;;;;;;;27.73;12.95;;;21.10;99.90;;;;;;5051314;28;20040;-35
2023/10/02 09:54:17;;;;;;;24.02;12.20;;;21.10;99.90;;;;;;5051379;28;20103;-38
2023/10/02 09:57:11;;;;;;;26.20;12.35;;;21.10;99.90;;;;;;5051147;28;20021;-34
2023/10/02 09:59:46;;;;;;;22.97;12.87;;;21.10;99.90;;;;;;5051301;28;20367;-40
2023/10/02 10:10:46;;;;;;;24.65;12.73;;;21.10;99.90;;;;;;5051188;28;20056;-35
2023/10/02 10:13:37;;;;;;;22.05;11.55;;;21.10;99.90;;;;;;5050999;28;20040;-39
2023/10/02 10:16:21;;;;;;;24.73;12.45;;;21.10;99.90;;;;;;5050885;28;20029;-34
2023/10/02 10:21:55;;;;;;;22.90;11.90;;;21.10;99.90;;;;;;5050930;28;20112;-36
2023/10/02 10:24:51;;;;;;;21.95;11.77;;;21.10;99.90;;;;;;5051038;28;20029;-36
2023/10/02 10:27:43;;;;;;;23.35;11.90;;;21.10;99.90;;;;;;5050808;28;20021;-36
2023/10/02 10:31:02;;;;;;;20.65;11.07;;;21.10;99.90;;;;;;5050864;28;20021;-35
2023/10/02 10:35:41;;;;;;;23.48;11.50;;;21.10;99.90;;;;;;5050782;28;20475;-36
2023/10/02 10:38:41;;;;;;;21.50;10.75;;;21.10;99.90;;;;;;5050681;28;20082;-36
2023/10/02 10:41:26;;;;;;;22.30;11.80;;;21.20;99.90;;;;;;5046803;28;20033;-35
2023/10/02 10:44:01;;;;;;;20.50;10.95;;;21.20;99.90;;;;;;5050760;28;20083;-34
2023/10/02 10:46:27;;;;;;;;;;;21.20;99.90;;;;;;5051587;28;20063;-35
2023/10/02 10:49:07;;;;;;;21.35;11.40;;;21.20;99.90;;;;;;5050728;28;19919;-40
2023/10/02 10:51:37;;;;;;;22.25;10.80;;;21.20;99.90;;;;;;5051131;28;20104;-37
2023/10/02 10:54:12;;;;;;;18.85;10.75;;;21.20;99.90;;;;;;5052186;28;20021;-33
2023/10/02 10:56:55;;;;;;;19.08;10.00;;;21.20;99.90;;;;;;5054360;28;20370;-33
2023/10/02 10:59:32;;;;;;;21.30;11.20;;;21.20;99.90;;;;;;5036459;28;20029;-34
2023/10/02 11:02:15;;;;;;;19.52;10.98;;;21.20;99.90;;;;;;5054422;28;20079;-35
2023/10/02 11:04:51;;;;;;;21.65;10.57;;;21.20;99.90;;;;;;5054341;28;20064;-36
2023/10/02 11:07:25;;;;;;;18.02;10.45;;;21.20;99.90;;;;;;5054053;28;20071;-34
2023/10/02 11:10:19;;;;;;;20.00;10.15;;;21.20;99.90;;;;;;5054485;28;20100;-34
2023/10/02 11:12:56;;;;;;;23.85;11.40;;;21.20;99.90;;;;;;5054208;28;20082;-42
2023/10/02 11:15:47;;;;;;;19.83;10.57;;;21.20;99.90;;;;;;5054134;28;20021;-37
2023/10/02 11:18:21;;;;;;;18.25;10.63;;;21.20;99.90;;;;;;5054253;28;20021;-36
2023/10/02 11:21:00;;;;;;;23.80;10.70;;;21.20;99.90;;;;;;5054110;28;20021;-37
2023/10/02 11:23:37;;;;;;;19.58;10.25;;;21.30;99.90;;;;;;5053891;28;20025;-36
2023/10/02 11:26:10;;;;;;;20.15;10.48;;;21.30;99.90;;;;;;5053626;28;20439;-36
2023/10/02 11:28:37;;;;;;;18.83;10.30;;;21.30;99.90;;;;;;5054227;28;20172;-37
2023/10/02 11:31:36;;;;;;;19.95;10.13;;;21.30;99.90;;;;;;5053952;28;20096;-40
2023/10/02 11:34:08;;;;;;;20.10;11.07;;;21.30;99.90;;;;;;5053865;28;20477;-35
2023/10/02 11:36:39;;;;;;;20.67;10.48;;;21.30;99.90;;;;;;5053609;28;20033;-33
2023/10/02 11:39:16;;;;;;;18.08;10.25;;;21.30;99.90;;;;;;5053683;28;20037;-40
2023/10/02 11:41:42;;;;;;;17.00;10.25;;;21.30;99.90;;;;;;5053785;28;20108;-37
2023/10/02 11:44:12;;;;;;;19.90;10.00;;;21.30;99.90;;;;;;5053551;28;20074;-36
2023/10/02 11:46:40;;;;;;;19.25;10.30;;;21.30;99.90;;;;;;5053466;28;20075;-35
2023/10/02 11:49:06;;;;;;;19.48;10.15;;;21.30;99.90;;;;;;5053291;28;20031;-37
2023/10/02 11:51:33;;;;;;;16.48;9.55;;;21.40;99.90;;;;;;5053492;28;20107;-39
2023/10/02 11:54:00;;;;;;;18.25;11.00;;;21.30;99.90;;;;;;5053561;28;20029;-36
2023/10/02 11:56:28;;;;;;;27.60;14.80;;;21.40;99.90;;;;;;5053192;28;20060;-36
2023/10/02 11:58:54;;;;;;;26.25;14.18;;;21.40;99.90;;;;;;5053302;28;20056;-33
2023/10/02 12:01:23;;;;;;;27.70;14.23;;;21.50;99.90;;;;;;5053151;28;20057;-38
2023/10/02 12:03:49;;;;;;;26.35;14.25;;;21.50;99.90;;;;;;5053162;28;21131;-35
2023/10/02 12:06:16;;;;;;;25.67;13.65;;;21.50;99.90;;;;;;5052233;28;20529;-35
2023/10/02 12:08:46;;;;;;;25.15;13.48;;;21.50;99.90;;;;;;5053353;28;20024;-40
2023/10/02 12:11:13;;;;;;;25.55;12.93;;;21.50;99.90;;;;;;5053189;28;20017;-38
2023/10/02 12:13:40;;;;;;;24.35;13.65;;;21.50;99.90;;;;;;5035172;28;20398;-36
2023/10/02 12:16:07;;;;;;;27.08;13.70;;;21.50;99.90;;;;;;5052924;28;20024;-35
2023/10/02 12:18:34;;;;;;;25.30;12.60;;;21.50;99.90;;;;;;5035563;28;20033;-36
2023/10/02 12:21:00;;;;;;;24.63;13.00;;;21.50;99.90;;;;;;5053206;28;20029;-35
2023/10/02 12:23:28;;;;;;;27.67;14.20;;;21.50;99.90;;;;;;5052995;28;20035;-35
2023/10/02 12:25:55;;;;;;;28.30;13.85;;;21.50;99.90;;;;;;5034686;28;20032;-40
2023/10/02 12:28:21;;;;;;;22.48;12.73;;;21.50;99.90;;;;;;5052809;28;20025;-43
2023/10/02 12:30:48;;;;;;;23.45;11.95;;;21.50;99.90;;;;;;5052794;28;20100;-38
2023/10/02 12:33:14;;;;;;;25.45;12.55;;;21.50;99.90;;;;;;5053103;28;20066;-35
2023/10/02 12:35:40;;;;;;;23.15;12.38;;;21.50;99.90;;;;;;5053252;28;20025;-34
2023/10/02 12:38:07;;;;;;;22.70;12.07;;;21.50;99.90;;;;;;5054670;28;20107;-35
2023/10/02 12:40:33;;;;;;;26.67;13.20;;;21.50;99.90;;;;;;5056042;28;20021;-38
2023/10/02 12:43:01;;;;;;;23.92;12.48;;;21.50;99.90;;;;;;5056517;28;20021;-34
2023/10/02 12:45:33;;;;;;;23.58;12.70;;;21.50;99.90;;;;;;5053119;28;20036;-35
2023/10/02 12:47:59;;;;;;;28.92;13.10;;;21.50;99.90;;;;;;5052857;28;20379;-35
2023/10/02 12:50:24;;;;;;;23.15;12.20;;;21.60;99.90;;;;;;5052667;28;20025;-39
2023/10/02 12:52:50;;;;;;;24.30;12.70;;;21.60;99.90;;;;;;5052546;28;20028;-36
2023/10/02 12:55:16;;;;;;;27.83;14.07;;;21.70;99.90;;;;;;5052224;28;20032;-35
2023/10/02 12:57:42;;;;;;;23.48;12.82;;;21.70;99.90;;;;;;5052109;28;20029;-36
2023/10/02 13:00:16;;;;;;;25.35;12.75;;;21.70;99.90;;;;;;5052539;28;20462;-37
2023/10/02 13:02:42;;;;;;;27.92;13.63;;;21.70;99.90;;;;;;5052203;28;20078;-37
2023/10/02 13:05:09;;;;;;;23.88;12.00;;;21.70;99.90;;;;;;5051898;28;20037;-38
2023/10/02 13:07:35;;;;;;;28.63;13.30;;;21.70;99.90;;;;;;5051819;28;20025;-36
2023/10/02 13:10:01;;;;;;;21.77;12.48;;;21.70;99.90;;;;;;5051901;28;20063;-34
2023/10/02 13:12:26;;;;;;;23.05;12.65;;;21.70;99.90;;;;;;5051783;28;20104;-35
2023/10/02 13:14:54;;;;;;;24.75;12.77;;;21.80;99.90;;;;;;5051782;28;20032;-36
2023/10/02 13:17:20;;;;;;;23.05;12.63;;;21.70;99.90;;;;;;5051707;28;20366;-35
2023/10/02 13:19:45;;;;;;;23.33;12.45;;;21.70;99.90;;;;;;5051777;28;20546;-43
2023/10/02 13:22:11;;;;;;;23.98;12.27;;;21.70;99.90;;;;;;5051654;28;20060;-38
2023/10/02 13:24:36;;;;;;;21.88;11.95;;;21.70;99.90;;;;;;5051429;28;20064;-35
2023/10/02 13:27:02;;;;;;;20.80;11.50;;;21.70;99.90;;;;;;5051395;28;20025;-34
2023/10/02 13:29:28;;;;;;;22.52;12.43;;;21.70;99.90;;;;;;5033854;28;20029;-35
2023/10/02 13:31:53;;;;;;;22.48;11.07;;;21.70;99.90;;;;;;5051583;28;20107;-34
2023/10/02 13:34:20;;;;;;;23.00;11.88;;;21.70;99.90;;;;;;5051580;28;20452;-39
2023/10/02 13:36:46;;;;;;;25.58;12.32;;;21.70;99.90;;;;;;5051593;28;20028;-43
2023/10/02 13:39:16;;;;;;;24.38;12.27;;;21.70;99.90;;;;;;5051303;28;20482;-36
2023/10/02 13:41:42;;;;;;;23.25;12.27;;;21.70;99.90;;;;;;5051395;28;20085;-43
2023/10/02 13:44:08;;;;;;;21.75;12.13;;;21.70;99.90;;;;;;5051302;28;20484;-38
2023/10/02 13:46:38;;;;;;;25.05;12.20;;;21.70;99.90;;;;;;5051251;28;20048;-41
2023/10/02 13:49:05;;;;;;;22.77;12.25;;;21.70;99.90;;;;;;5051236;28;20033;-42
2023/10/02 13:51:31;;;;;;;21.60;11.98;;;21.70;99.90;;;;;;5051394;28;20024;-36
2023/10/02 13:53:57;;;;;;;22.38;11.57;;;21.70;99.90;;;;;;5051297;28;20380;-34